Scottish Airport Reports

Civil airfields updated at H+20 and H+50
RAF airfields updated at H+50 only

EGPD - Aberdeen
Distance from station: NNE 19mi, 31km
Updated: 22/02/2018 08:20
Partly cloudy
Partly cloudy
 Wind from S
Wind: S 8 mph , 13 km/h
Temperature: 3°C
Wind Chill: -1°C
Dew Point: 2°C
Humidity: 93%
Barometer: 1025 hPa
Clouds: Partly cloudy
Visibility: 6 miles , 10 km
Cloud details: Few Clouds 1500 ft
Partly cloudy 2600 ft
2018/02/22 08:20 EGPD 220820Z 18007KT 9999 FEW015 SCT026 03/02 Q1025 NOSIG
EGPN - Dundee
Distance from station: SW 41mi, 66km
Updated: 22/02/2018 08:20
Few Clouds
Few Clouds
 Wind from ENE
Wind: ENE 2 mph , 4 km/h
Temperature: 2°C
Dew Point: 1°C
Humidity: 93%
Barometer: 1025 hPa
Clouds: Few Clouds
Visibility: 6 miles , 10 km
Cloud details: Few Clouds 3500 ft
2018/02/22 08:20 EGPN 220820Z 07002KT 9999 FEW035 02/01 Q1025
 
EGQS - RAF Lossiemouth
Distance from station: NNW 63mi, 102km
Updated: 22/02/2018 07:50
Partly cloudy
Partly cloudy
 Wind from S
Wind: S 6 mph , 9 km/h
Temperature: -1°C
Wind Chill: -4°C
Dew Point: -3°C
Humidity: 86%
Barometer: 1023 hPa
Clouds: Partly cloudy
Visibility: 6 miles , 10 km
Cloud details: Few Clouds 3500 ft
Partly cloudy 22000 ft
2018/02/22 07:50 EGQS 220750Z 18005KT 9999 FEW035 SCT220 M01/M03 Q1023 BLU NOSIG
EGPE - Inverness
Distance from station: WNW 73mi, 117km
Updated: 22/02/2018 08:20
Few Clouds
Few Clouds
 Wind from varies
Wind: varies 1 mph , 2 km/h
Temperature: -1°C
Dew Point: -2°C
Humidity: 93%
Barometer: 1023 hPa
Clouds: Few Clouds
Visibility: 6 miles , 10 km
Cloud details: Few Clouds 4300 ft
2018/02/22 08:20 EGPE 220820Z VRB01KT 9999 FEW043 M01/M02 Q1023
 
EGPH - Edinburgh
Distance from station: SSW 77mi, 125km
Updated: 22/02/2018 08:20
Partly cloudy
Partly cloudy
 Wind from NE
Wind: NE 2 mph , 4 km/h
Temperature: -2°C
Dew Point: -2°C
Humidity: 100%
Barometer: 1025 hPa
Clouds: Partly cloudy
Visibility: 6 miles , 10 km
Cloud details: Few Clouds 1800 ft
Partly cloudy 4600 ft
2018/02/22 08:20 EGPH 220820Z 05002KT 9999 FEW018 SCT046 M02/M02 Q1025
EGPC - Wick
Distance from station: NNW 107mi, 172km
Updated: 22/02/2018 08:20
Clear
Clear
 Wind from S
Wind: S 14 mph , 22 km/h
Temperature: 4°C
Wind Chill: -1°C
Dew Point: 2°C
Humidity: 87%
Barometer: 1023 hPa
Summary: Clear
Visibility: greater than 7 miles , 10 km
2018/02/22 08:20 EGPC 220820Z 19012KT CAVOK 04/02 Q1023
 
EGPF - Glasgow
Distance from station: SW 107mi, 172km
Updated: 22/02/2018 08:20
Overcast
Overcast
 Wind from NE
Wind: NE 6 mph , 9 km/h
Temperature: 2°C
Wind Chill: -1°C
Dew Point: 0°C
Humidity: 87%
Barometer: 1025 hPa
Clouds: Overcast
Visibility: 6 miles , 10 km
Cloud details: Overcast 4400 ft
2018/02/22 08:20 EGPF 220820Z AUTO 04005KT 9999 OVC044 02/00 Q1025
EGPK - Prestwick
Distance from station: SW 130mi, 209km
Updated: 22/02/2018 08:20
Partly cloudy
Partly cloudy
 Wind from SE
Wind: SE 10 mph , 17 km/h
Temperature: 3°C
Wind Chill: -1°C
Dew Point: 0°C
Humidity: 81%
Barometer: 1024 hPa
Clouds: Partly cloudy
Visibility: 6 miles , 10 km
Cloud details: Partly cloudy 4500 ft
2018/02/22 08:20 EGPK 220820Z 14009KT 9999 SCT045 03/00 Q1024
 
EGPA - Kirkwall, Orkney
Distance from station: N 140mi, 225km
Updated: 22/02/2018 08:20
Few Clouds
Few Clouds
 Wind from S
Wind: S 16 mph , 26 km/h
Temperature: 4°C
Wind Chill: -1°C
Dew Point: 2°C
Humidity: 87%
Barometer: 1023 hPa
Clouds: Few Clouds
Visibility: 6 miles , 10 km
Cloud details: Few Clouds 1600 ft
2018/02/22 08:20 EGPA 220820Z 18014KT 9999 FEW016 04/02 Q1023
EGPO - Stornoway, Outer Hebrides
Distance from station: WNW 169mi, 273km
Updated: 22/02/2018 08:20
Nearby showers, Mostly cloudy
Nearby showers, Mostly cloudy
 Wind from S
Wind: S 22 mph , 35 km/h
Temperature: 6°C
Wind Chill: 1°C
Dew Point: 2°C
Humidity: 76%
Barometer: 1019 hPa
Summary: Nearby Showers
Clouds: Mostly cloudy
Visibility: 6 miles , 10 km
Cloud details: Few Clouds 1100 ft
Mostly cloudy 3800 ft
2018/02/22 08:20 EGPO 220820Z 17019KT 9999 VCSH FEW011 BKN038 06/02 Q1019
 
EGPI - Islay, Inner Hebrides
Distance from station: WSW 172mi, 276km
Updated: 22/02/2018 08:20
Mostly cloudy
Mostly cloudy
 Wind from SSE
Wind: SSE 13 mph , 20 km/h
Temperature: 6°C
Wind Chill: 2°C
Dew Point: 2°C
Humidity: 76%
Barometer: 1021 hPa
Clouds: Mostly cloudy
Visibility: 6 miles , 10 km
Cloud details: Few Clouds 1000 ft
Mostly cloudy 4400 ft
2018/02/22 08:20 EGPI 220820Z 16011KT 130V190 9999 FEW010 BKN044 06/02 Q1021
EGPU - Tiree, Inner Hebrides
Distance from station: W 172mi, 276km
Updated: 22/02/2018 07:50
Mostly cloudy
Mostly cloudy
 Wind from S
Wind: S 26 mph , 43 km/h
Temperature: 6°C
Wind Chill: 1°C
Dew Point: 2°C
Humidity: 76%
Barometer: 1020 hPa
Clouds: Mostly cloudy
Visibility: 6 miles , 10 km
Cloud details: Mostly cloudy 4300 ft
2018/02/22 07:50 EGPU 220750Z AUTO 18023KT 9999 BKN043/// 06/02 Q1020
 
EGPB - Sumburgh, Shetland
Distance from station: NNE 208mi, 332km
Updated: 22/02/2018 08:20
Few Clouds
Few Clouds
 Wind from S
Wind: S 18 mph , 30 km/h
Temperature: 6°C
Wind Chill: 2°C
Dew Point: 2°C
Humidity: 76%
Barometer: 1024 hPa
Clouds: Few Clouds
Visibility: 6 miles , 10 km
Cloud details: Few Clouds 1800 ft
2018/02/22 08:20 EGPB 220820Z 18016KT 9999 FEW018 06/02 Q1024 NOSIG
EGPM - Scatsa, Shetland
Distance from station: NNE 245mi, 392km
Updated: 22/02/2018 08:20
Few Clouds
Few Clouds
 Wind from S
Wind: S 18 mph , 30 km/h
Temperature: 5°C
Wind Chill: 0°C
Dew Point: 2°C
Humidity: 81%
Barometer: 1023 hPa
Clouds: Few Clouds
Visibility: 6 miles , 10 km
Cloud details: Few Clouds 1400 ft
2018/02/22 08:20 EGPM 220820Z 18016KT 9999 FEW014 05/02 Q1023 NOSIG
-->